createdAt,value
2023-02-27T00:00:18.963Z,941.5
2023-02-27T00:01:20.695Z,941.5
2023-02-27T00:02:22.811Z,941.5
2023-02-27T00:03:24.779Z,941.6
2023-02-27T00:04:26.426Z,941.5
2023-02-27T00:05:28.414Z,941.5
2023-02-27T00:06:30.201Z,941.5
2023-02-27T00:07:31.881Z,941.5
2023-02-27T00:08:33.958Z,941.4
2023-02-27T00:09:35.888Z,941.4
2023-02-27T00:10:37.849Z,941.5
2023-02-27T00:11:39.573Z,941.5
2023-02-27T00:12:41.331Z,941.5
2023-02-27T00:13:43.287Z,941.6
2023-02-27T00:14:45.128Z,941.5
2023-02-27T00:15:47.303Z,941.4
2023-02-27T00:16:49.239Z,941.5
2023-02-27T00:17:51.003Z,941.5
2023-02-27T00:18:52.756Z,941.5
2023-02-27T00:19:54.365Z,941.4
2023-02-27T00:20:56.034Z,941.5
2023-02-27T00:21:57.826Z,941.4
2023-02-27T00:22:59.642Z,941.5
2023-02-27T00:24:01.380Z,941.4
2023-02-27T00:25:03.034Z,941.4
2023-02-27T00:26:04.811Z,941.3
2023-02-27T00:27:06.436Z,941.4
2023-02-27T00:28:08.119Z,941.4
2023-02-27T00:29:09.809Z,941.5
2023-02-27T00:30:11.648Z,941.5
2023-02-27T00:31:13.635Z,941.4
2023-02-27T00:32:15.794Z,941.4
2023-02-27T00:33:17.747Z,941.4
2023-02-27T00:34:19.446Z,941.5
2023-02-27T00:35:21.223Z,941.5
2023-02-27T00:36:23.160Z,941.5
2023-02-27T00:37:25.021Z,941.5
2023-02-27T00:38:26.623Z,941.5
2023-02-27T00:39:28.284Z,941.5
2023-02-27T00:40:29.975Z,941.6
2023-02-27T00:41:31.650Z,941.6
2023-02-27T00:42:33.363Z,941.5
2023-02-27T00:43:35.185Z,941.5
2023-02-27T00:44:36.945Z,941.5
2023-02-27T00:45:38.786Z,941.4
2023-02-27T00:46:40.781Z,941.4
2023-02-27T00:47:42.752Z,941.4
2023-02-27T00:48:44.403Z,941.5
2023-02-27T00:49:46.209Z,941.6
2023-02-27T00:50:47.929Z,941.5
2023-02-27T00:51:49.792Z,941.5
2023-02-27T00:52:51.628Z,941.4
2023-02-27T00:53:53.365Z,941.4
2023-02-27T00:54:55.130Z,941.4
2023-02-27T00:55:56.983Z,941.4
2023-02-27T00:56:58.781Z,941.5
2023-02-27T00:58:00.410Z,941.5
2023-02-27T00:59:02.134Z,941.5
2023-02-27T01:00:03.992Z,941.6
2023-02-27T01:01:06.041Z,941.7
2023-02-27T01:02:08.106Z,941.6
2023-02-27T01:03:09.921Z,941.6
2023-02-27T01:04:11.683Z,941.6
2023-02-27T01:05:13.422Z,941.6
2023-02-27T01:06:15.314Z,941.6
2023-02-27T01:07:17.013Z,941.6
2023-02-27T01:08:18.743Z,941.6
2023-02-27T01:09:20.584Z,941.5
2023-02-27T01:10:22.552Z,941.6
2023-02-27T01:11:25.418Z,941.6
2023-02-27T01:12:27.925Z,941.6
2023-02-27T01:13:29.781Z,941.6
2023-02-27T01:14:31.629Z,941.6
2023-02-27T01:15:33.236Z,941.5
2023-02-27T01:16:35.053Z,941.5
2023-02-27T01:17:37.560Z,941.5
2023-02-27T01:18:39.327Z,941.5
2023-02-27T01:19:41.211Z,941.5
2023-02-27T01:20:42.925Z,941.5
2023-02-27T01:21:44.663Z,941.5
2023-02-27T01:22:46.517Z,941.5
2023-02-27T01:23:48.571Z,941.5
2023-02-27T01:24:50.420Z,941.5
2023-02-27T01:25:52.071Z,941.5
2023-02-27T01:26:53.820Z,941.5
2023-02-27T01:27:55.674Z,941.5
2023-02-27T01:28:57.419Z,941.5
2023-02-27T01:29:59.071Z,941.6
2023-02-27T01:31:00.864Z,941.5
2023-02-27T01:32:03.398Z,941.5
2023-02-27T01:33:05.594Z,941.5
2023-02-27T01:34:07.319Z,941.5
2023-02-27T01:35:09.053Z,941.6
2023-02-27T01:36:10.678Z,941.6
2023-02-27T01:37:15.224Z,941.6
2023-02-27T01:38:16.943Z,941.6
2023-02-27T01:39:18.808Z,941.7
2023-02-27T01:40:20.637Z,941.7
2023-02-27T01:41:22.284Z,941.7
2023-02-27T01:42:23.934Z,941.8
2023-02-27T01:43:25.592Z,941.8
2023-02-27T01:44:27.428Z,941.9
2023-02-27T01:45:29.495Z,941.9
2023-02-27T01:46:31.390Z,941.9
2023-02-27T01:47:33.086Z,942
2023-02-27T01:48:35.091Z,941.9
2023-02-27T01:49:36.894Z,941.9
2023-02-27T01:50:38.652Z,942
2023-02-27T01:51:40.312Z,942
2023-02-27T01:52:42.013Z,942.1
2023-02-27T01:53:43.980Z,942
2023-02-27T01:54:45.800Z,942
2023-02-27T01:55:47.568Z,942
2023-02-27T01:56:49.529Z,942
2023-02-27T01:57:51.376Z,942.1
2023-02-27T01:58:52.974Z,942
2023-02-27T01:59:54.646Z,942
2023-02-27T02:00:56.440Z,942
2023-02-27T02:01:58.389Z,942
2023-02-27T02:03:00.026Z,942
2023-02-27T02:04:01.688Z,942
2023-02-27T02:05:03.403Z,942
2023-02-27T02:06:05.170Z,942.1
2023-02-27T02:07:06.991Z,942.1
2023-02-27T02:08:08.795Z,942.1
2023-02-27T02:09:10.398Z,942.1
2023-02-27T02:10:12.372Z,942.2
2023-02-27T02:11:14.102Z,942.3
2023-02-27T02:12:15.742Z,942.4
2023-02-27T02:13:17.321Z,942.5
2023-02-27T02:14:19.001Z,942.4
2023-02-27T02:15:20.559Z,942.4
2023-02-27T02:16:22.262Z,942.4
2023-02-27T02:17:24.069Z,942.4
2023-02-27T02:18:25.803Z,942.4
2023-02-27T02:19:27.680Z,942.3
2023-02-27T02:20:29.321Z,942.3
2023-02-27T02:21:31.113Z,942.4
2023-02-27T02:22:32.803Z,942.6
2023-02-27T02:23:34.564Z,943.1
2023-02-27T02:24:36.205Z,943.4
2023-02-27T02:25:37.936Z,943.1
2023-02-27T02:26:39.677Z,943.9
2023-02-27T02:27:41.360Z,943.9
2023-02-27T02:28:43.076Z,943.9
2023-02-27T02:29:44.729Z,944
2023-02-27T02:30:46.740Z,944.1
2023-02-27T02:31:49.442Z,944
2023-02-27T02:32:51.629Z,944.2
2023-02-27T02:33:53.450Z,944.2
2023-02-27T02:34:55.193Z,944.2
2023-02-27T02:35:56.872Z,944.2
2023-02-27T02:36:58.595Z,944
2023-02-27T02:38:00.450Z,944.1
2023-02-27T02:39:02.726Z,944.2
2023-02-27T02:40:04.549Z,944.2
2023-02-27T02:41:06.635Z,944.3
2023-02-27T02:42:08.345Z,944.3
2023-02-27T02:43:09.975Z,944.4
2023-02-27T02:44:11.643Z,944.3
2023-02-27T02:45:13.492Z,944.3
2023-02-27T02:46:15.586Z,944.3
2023-02-27T02:47:17.313Z,944.3
2023-02-27T02:48:19.249Z,944.3
2023-02-27T02:49:21.105Z,944.3
2023-02-27T02:50:22.712Z,944.4
2023-02-27T02:51:24.753Z,944.5
2023-02-27T02:52:27.367Z,944.6
2023-02-27T02:53:38.045Z,944.7
2023-02-27T02:54:39.874Z,944.8
2023-02-27T02:55:41.659Z,944.8
2023-02-27T02:56:43.542Z,944.7
2023-02-27T02:57:45.523Z,944.7
2023-02-27T02:58:47.241Z,944.6
2023-02-27T02:59:49.053Z,944.6
2023-02-27T03:00:50.872Z,944.7
2023-02-27T03:01:53.072Z,944.7
2023-02-27T03:02:55.193Z,944.7
2023-02-27T03:03:56.950Z,944.7
2023-02-27T03:04:58.718Z,944.7
2023-02-27T03:06:00.315Z,944.7
2023-02-27T03:07:01.908Z,944.7
2023-02-27T03:08:03.650Z,944.7
2023-02-27T03:09:05.541Z,944.7
2023-02-27T03:10:07.193Z,944.7
2023-02-27T03:11:08.976Z,944.7
2023-02-27T03:12:10.932Z,944.7
2023-02-27T03:13:12.665Z,944.7
2023-02-27T03:14:14.318Z,944.7
2023-02-27T03:15:16.172Z,944.6
2023-02-27T03:16:18.016Z,944.6
2023-02-27T03:17:19.869Z,944.6
2023-02-27T03:18:21.853Z,944.6
2023-02-27T03:19:23.669Z,944.6
2023-02-27T03:20:25.511Z,944.7
2023-02-27T03:21:28.539Z,944.6
2023-02-27T03:22:30.978Z,944.6
2023-02-27T03:23:32.802Z,944.5
2023-02-27T03:24:34.481Z,944.5
2023-02-27T03:25:36.099Z,944.5
2023-02-27T03:26:37.758Z,944.6
2023-02-27T03:27:39.583Z,944.6
2023-02-27T03:28:41.262Z,944.7
2023-02-27T03:29:42.966Z,944.9
2023-02-27T03:30:45.180Z,945
2023-02-27T03:31:47.758Z,945.2
2023-02-27T03:32:49.552Z,945.2
2023-02-27T03:33:51.181Z,945.2
2023-02-27T03:34:52.868Z,945.4
2023-02-27T03:35:54.696Z,945.5
2023-02-27T03:36:56.389Z,945.6
2023-02-27T03:37:57.998Z,945.6
2023-02-27T03:38:59.613Z,945.7
2023-02-27T03:40:01.229Z,945.7
2023-02-27T03:41:02.914Z,945.7
2023-02-27T03:42:04.760Z,945.6
2023-02-27T03:43:06.739Z,945.7
2023-02-27T03:44:08.572Z,945.6
2023-02-27T03:45:10.399Z,945.5
2023-02-27T03:46:12.146Z,945.5
2023-02-27T03:47:13.843Z,945.6
2023-02-27T03:48:15.555Z,945.6
2023-02-27T03:49:17.405Z,945.6
2023-02-27T03:50:19.363Z,945.6
2023-02-27T03:51:21.014Z,945.5
2023-02-27T03:52:22.652Z,945.5
2023-02-27T03:53:24.390Z,945.5
2023-02-27T03:54:26.134Z,945.5
2023-02-27T03:55:27.821Z,945.6
2023-02-27T03:56:29.542Z,945.6
2023-02-27T03:57:31.291Z,945.5
2023-02-27T03:58:33.004Z,945.6
2023-02-27T03:59:34.712Z,945.6
2023-02-27T04:00:36.329Z,945.6
2023-02-27T04:01:38.282Z,945.8
2023-02-27T04:02:40.179Z,945.8
2023-02-27T04:03:41.845Z,945.9
2023-02-27T04:04:43.775Z,945.9
2023-02-27T04:05:45.674Z,945.9
2023-02-27T04:06:47.434Z,946
2023-02-27T04:07:49.278Z,946
2023-02-27T04:08:51.123Z,945.9
2023-02-27T04:09:53.549Z,945.9
2023-02-27T04:10:55.317Z,946
2023-02-27T04:11:57.083Z,946
2023-02-27T04:12:58.802Z,946.1
2023-02-27T04:14:00.612Z,946.2
2023-02-27T04:15:02.427Z,946.1
2023-02-27T04:16:04.417Z,946.1
2023-02-27T04:17:06.247Z,946.1
2023-02-27T04:18:07.883Z,946.1
2023-02-27T04:19:09.492Z,946.2
2023-02-27T04:20:11.292Z,946.2
2023-02-27T04:21:12.970Z,946.1
2023-02-27T04:22:14.591Z,946
2023-02-27T04:23:16.318Z,946
2023-02-27T04:24:18.088Z,946.1
2023-02-27T04:25:19.819Z,946.1
2023-02-27T04:26:21.654Z,946.2
2023-02-27T04:27:23.516Z,946.2
2023-02-27T04:28:25.355Z,946.2
2023-02-27T04:29:27.299Z,946.2
2023-02-27T04:30:29.163Z,946.2
2023-02-27T04:31:32.141Z,946.2
2023-02-27T04:32:34.750Z,946.2
2023-02-27T04:33:36.868Z,946.2
2023-02-27T04:34:38.725Z,946.3
2023-02-27T04:35:40.530Z,946.4
2023-02-27T04:36:42.413Z,946.5
2023-02-27T04:37:44.264Z,946.5
2023-02-27T04:38:46.207Z,946.5
2023-02-27T04:39:47.919Z,946.5
2023-02-27T04:40:49.550Z,946.5
2023-02-27T04:41:51.359Z,946.6
2023-02-27T04:42:53.212Z,946.6
2023-02-27T04:43:55.010Z,946.7
2023-02-27T04:44:56.933Z,946.7
2023-02-27T04:45:58.892Z,946.9
2023-02-27T04:47:00.909Z,946.9
2023-02-27T04:48:05.548Z,947
2023-02-27T04:49:07.474Z,947
2023-02-27T04:50:09.356Z,947
2023-02-27T04:51:11.901Z,947.1
2023-02-27T04:52:13.743Z,947.2
2023-02-27T04:53:15.603Z,947.2
2023-02-27T04:54:17.308Z,947.2
2023-02-27T04:55:19.111Z,947.1
2023-02-27T04:56:20.964Z,947.1
2023-02-27T04:57:22.651Z,947.1
2023-02-27T04:58:25.758Z,947.2
2023-02-27T04:59:27.511Z,947.1
2023-02-27T05:00:29.514Z,947.1
2023-02-27T05:01:31.772Z,947.1
2023-02-27T05:02:34.317Z,947.1
2023-02-27T05:03:36.454Z,947.1
2023-02-27T05:04:38.408Z,947.1
2023-02-27T05:05:40.241Z,947.2
2023-02-27T05:06:42.091Z,947.2
2023-02-27T05:07:43.765Z,947.2
2023-02-27T05:08:45.698Z,947.2
2023-02-27T05:09:47.448Z,947.3
2023-02-27T05:10:49.409Z,947.4
2023-02-27T05:11:51.186Z,947.4
2023-02-27T05:12:53.010Z,947.5
2023-02-27T05:13:54.841Z,947.5
2023-02-27T05:14:56.606Z,947.5
2023-02-27T05:15:58.825Z,947.6
2023-02-27T05:17:01.021Z,947.5
2023-02-27T05:18:03.029Z,947.5
2023-02-27T05:19:05.036Z,947.6
2023-02-27T05:20:06.774Z,947.6
2023-02-27T05:21:08.531Z,947.7
2023-02-27T05:22:10.382Z,947.7
2023-02-27T05:23:12.150Z,947.8
2023-02-27T05:24:13.851Z,947.7
2023-02-27T05:25:15.528Z,947.7
2023-02-27T05:26:17.256Z,947.7
2023-02-27T05:27:19.117Z,947.8
2023-02-27T05:28:21.074Z,947.7
2023-02-27T05:29:22.919Z,947.8
2023-02-27T05:30:24.665Z,947.8
2023-02-27T05:31:27.578Z,947.8
2023-02-27T05:32:30.480Z,947.8
2023-02-27T05:33:32.374Z,947.8
2023-02-27T05:34:34.199Z,947.7
2023-02-27T05:35:36.142Z,947.6
2023-02-27T05:36:37.841Z,947.7
2023-02-27T05:37:39.551Z,947.8
2023-02-27T05:38:41.405Z,947.8
2023-02-27T05:39:43.200Z,947.8
2023-02-27T05:40:44.929Z,947.7
2023-02-27T05:41:46.594Z,947.6
2023-02-27T05:42:48.379Z,947.7
2023-02-27T05:43:50.281Z,947.8
2023-02-27T05:44:51.990Z,947.9
2023-02-27T05:45:53.935Z,948
2023-02-27T05:46:56.009Z,947.9
2023-02-27T05:47:57.722Z,947.7
2023-02-27T05:48:59.443Z,947.7
2023-02-27T05:50:01.620Z,947.8
2023-02-27T05:51:03.604Z,947.9
2023-02-27T05:52:05.320Z,947.9
2023-02-27T05:53:07.003Z,947.9
2023-02-27T05:54:08.867Z,947.9
2023-02-27T05:55:11.109Z,947.9
2023-02-27T05:56:12.937Z,947.9
2023-02-27T05:57:14.624Z,948
2023-02-27T05:58:16.311Z,948
2023-02-27T05:59:18.027Z,948
2023-02-27T06:00:20.387Z,948
2023-02-27T06:01:22.115Z,947.9
2023-02-27T06:02:24.015Z,947.8
2023-02-27T06:03:26.129Z,947.8
2023-02-27T06:04:28.040Z,948
2023-02-27T06:05:29.798Z,948.2
2023-02-27T06:06:31.650Z,948.3
2023-02-27T06:07:33.449Z,948.3
2023-02-27T06:08:35.171Z,948.2
2023-02-27T06:09:36.969Z,948.1
2023-02-27T06:10:38.660Z,948.1
2023-02-27T06:11:40.336Z,948.1
2023-02-27T06:12:41.975Z,948.3
2023-02-27T06:13:43.701Z,948.3
2023-02-27T06:14:45.547Z,948.3
2023-02-27T06:15:47.512Z,948.2
2023-02-27T06:16:49.410Z,948.2
2023-02-27T06:17:51.435Z,948.2
2023-02-27T06:18:53.160Z,948.2
2023-02-27T06:19:54.993Z,948.2
2023-02-27T06:20:57.328Z,948.2
2023-02-27T06:21:59.176Z,948.2
2023-02-27T06:23:01.066Z,948.4
2023-02-27T06:24:03.031Z,948.3
2023-02-27T06:25:04.860Z,948.2
2023-02-27T06:26:06.832Z,948.1
2023-02-27T06:27:09.148Z,948.3
2023-02-27T06:28:11.132Z,948.3
2023-02-27T06:29:12.989Z,948.3
2023-02-27T06:30:14.816Z,948.3
2023-02-27T06:31:16.995Z,948.3
2023-02-27T06:32:19.361Z,948.4
2023-02-27T06:33:21.435Z,948.5
2023-02-27T06:34:23.276Z,948.4
2023-02-27T06:35:25.101Z,948.3
2023-02-27T06:36:27.944Z,948.3
2023-02-27T06:37:31.051Z,948.4
2023-02-27T06:38:33.013Z,948.5
2023-02-27T06:39:34.873Z,948.6
2023-02-27T06:40:36.664Z,948.5
2023-02-27T06:41:38.952Z,948.6
2023-02-27T06:42:40.807Z,948.6
2023-02-27T06:43:42.673Z,948.5
2023-02-27T06:44:44.413Z,948.4
2023-02-27T06:45:46.245Z,948.4
2023-02-27T06:46:47.937Z,948.6
2023-02-27T06:47:49.848Z,948.6
2023-02-27T06:48:52.161Z,948.6
2023-02-27T06:49:54.165Z,948.4
2023-02-27T06:50:55.869Z,948.4
2023-02-27T06:51:57.978Z,948.5
2023-02-27T06:52:59.929Z,948.5
2023-02-27T06:54:01.677Z,948.4
2023-02-27T06:55:03.415Z,948.4
2023-02-27T06:56:05.372Z,948.4
2023-02-27T06:57:07.075Z,948.4
2023-02-27T06:58:09.026Z,948.4
2023-02-27T06:59:10.919Z,948.4
2023-02-27T07:00:12.615Z,948.4
2023-02-27T07:01:14.776Z,948.3
2023-02-27T07:02:16.773Z,948.4
2023-02-27T07:03:18.632Z,948.4
2023-02-27T07:04:20.847Z,948.4
2023-02-27T07:05:23.154Z,948.3
2023-02-27T07:07:38.872Z,948.2
2023-02-27T07:09:07.256Z,948.2
2023-02-27T07:10:09.171Z,948.3
2023-02-27T07:11:11.010Z,948.4
2023-02-27T07:12:12.863Z,948.4
2023-02-27T07:13:19.909Z,948.4
2023-02-27T07:14:21.893Z,948.4
2023-02-27T07:15:23.849Z,948.4
2023-02-27T07:16:27.153Z,948.4
2023-02-27T07:17:29.589Z,948.4
2023-02-27T07:18:31.524Z,948.5
2023-02-27T07:19:33.413Z,948.5
2023-02-27T07:20:35.341Z,948.5
2023-02-27T07:21:37.115Z,948.6
2023-02-27T07:22:38.961Z,948.6
2023-02-27T07:23:40.818Z,948.6
2023-02-27T07:24:42.726Z,948.6
2023-02-27T07:25:44.521Z,948.6
2023-02-27T07:26:46.647Z,948.6
2023-02-27T07:27:48.311Z,948.6
2023-02-27T07:28:49.934Z,948.6
2023-02-27T07:29:51.582Z,948.6
2023-02-27T07:30:53.572Z,948.6
2023-02-27T07:31:55.409Z,948.6
2023-02-27T07:32:57.156Z,948.7
2023-02-27T07:33:58.802Z,948.8
2023-02-27T07:35:00.571Z,948.8
2023-02-27T07:36:02.916Z,948.8
2023-02-27T07:37:05.063Z,948.7
2023-02-27T07:38:06.985Z,948.7
2023-02-27T07:39:08.844Z,948.6
2023-02-27T07:40:10.688Z,948.6
2023-02-27T07:41:31.352Z,948.6
2023-02-27T07:42:33.149Z,948.6
2023-02-27T07:43:34.902Z,948.7
2023-02-27T07:44:36.742Z,948.7
2023-02-27T07:45:38.693Z,948.8
2023-02-27T07:46:40.742Z,948.8
2023-02-27T07:47:42.607Z,948.7
2023-02-27T07:48:44.317Z,948.7
2023-02-27T07:49:46.013Z,948.7
2023-02-27T07:50:47.806Z,948.7
2023-02-27T07:51:49.506Z,948.8
2023-02-27T07:52:51.215Z,948.9
2023-02-27T07:53:53.273Z,948.8
2023-02-27T07:54:55.028Z,948.8
2023-02-27T07:55:56.922Z,948.8
2023-02-27T07:56:58.612Z,948.8
2023-02-27T07:58:00.614Z,948.8
2023-02-27T07:59:02.300Z,948.8
2023-02-27T08:00:03.948Z,948.8
2023-02-27T08:01:05.610Z,948.9
2023-02-27T08:02:07.326Z,948.9
2023-02-27T08:03:08.997Z,949
2023-02-27T08:04:11.117Z,948.9
2023-02-27T08:05:13.016Z,949
2023-02-27T08:06:14.877Z,949
2023-02-27T08:07:16.755Z,949
2023-02-27T08:08:18.636Z,949
2023-02-27T08:09:20.442Z,949
2023-02-27T08:10:22.270Z,949
2023-02-27T08:11:24.734Z,949
2023-02-27T08:12:27.301Z,949
2023-02-27T08:14:02.511Z,949
2023-02-27T08:15:05.032Z,948.9
2023-02-27T08:16:06.854Z,948.9
2023-02-27T08:17:08.841Z,948.9
2023-02-27T08:18:10.783Z,949
2023-02-27T08:19:12.558Z,949
2023-02-27T08:20:14.288Z,949.1
2023-02-27T08:21:16.516Z,949
2023-02-27T08:22:18.280Z,949
2023-02-27T08:23:19.889Z,948.9
2023-02-27T08:24:21.692Z,948.9
2023-02-27T08:25:23.340Z,948.9
2023-02-27T08:26:25.045Z,948.9
2023-02-27T08:27:26.833Z,948.9
2023-02-27T08:28:28.936Z,948.9
2023-02-27T08:29:30.989Z,948.9
2023-02-27T08:30:33.373Z,948.9
2023-02-27T08:31:35.564Z,948.9
2023-02-27T08:32:37.678Z,948.9
2023-02-27T08:33:39.967Z,949
2023-02-27T08:34:41.602Z,949
2023-02-27T08:35:43.452Z,949
2023-02-27T08:36:45.716Z,949
2023-02-27T08:37:47.660Z,949
2023-02-27T08:38:49.304Z,949
2023-02-27T08:39:51.065Z,949
2023-02-27T08:40:52.777Z,949
2023-02-27T08:41:54.426Z,949
2023-02-27T08:42:56.092Z,949.1
2023-02-27T08:43:57.818Z,949
2023-02-27T08:44:59.669Z,948.9
2023-02-27T08:46:01.685Z,948.9
2023-02-27T08:47:03.775Z,948.9
2023-02-27T08:48:05.572Z,949
2023-02-27T08:49:07.234Z,949.1
2023-02-27T08:50:09.266Z,949
2023-02-27T08:51:11.406Z,949
2023-02-27T08:52:13.169Z,949
2023-02-27T08:53:15.018Z,949
2023-02-27T08:54:16.686Z,949
2023-02-27T08:55:18.346Z,949
2023-02-27T08:56:20.022Z,949.1
2023-02-27T08:57:21.807Z,949.1
2023-02-27T08:58:23.490Z,949
2023-02-27T08:59:25.153Z,949.1
2023-02-27T09:00:27.169Z,949.1
2023-02-27T09:01:30.463Z,949.1
2023-02-27T09:02:33.107Z,949.2
2023-02-27T09:03:35.337Z,949.2
2023-02-27T09:04:37.133Z,949.2
2023-02-27T09:05:39.032Z,949.2
2023-02-27T09:06:40.748Z,949.1
2023-02-27T09:07:42.676Z,949.2
2023-02-27T09:08:44.492Z,949.2
2023-02-27T09:09:46.932Z,949.3
2023-02-27T09:10:51.659Z,949.3
2023-02-27T09:11:53.403Z,949.3
2023-02-27T09:12:55.344Z,949.3
2023-02-27T09:13:57.718Z,949.2
2023-02-27T09:14:59.626Z,949.2
2023-02-27T09:16:01.522Z,949.2
2023-02-27T09:17:03.512Z,949.3
2023-02-27T09:18:06.070Z,949.3
2023-02-27T09:19:07.741Z,949.3
2023-02-27T09:20:09.799Z,949.4
2023-02-27T09:21:11.628Z,949.4
2023-02-27T09:22:13.358Z,949.4
2023-02-27T09:23:15.204Z,949.4
2023-02-27T09:24:21.351Z,949.4
2023-02-27T09:25:23.117Z,949.3
2023-02-27T09:26:46.630Z,949.4
2023-02-27T09:27:49.311Z,949.3
2023-02-27T09:28:51.107Z,949.3
2023-02-27T09:29:52.802Z,949.3
2023-02-27T09:30:54.562Z,949.3
2023-02-27T09:31:56.823Z,949.3
2023-02-27T09:32:58.648Z,949.3
2023-02-27T09:34:00.274Z,949.3
2023-02-27T09:35:01.919Z,949.3
2023-02-27T09:36:03.957Z,949.4
2023-02-27T09:37:05.939Z,949.3
2023-02-27T09:38:07.610Z,949.4
2023-02-27T09:39:09.220Z,949.4
2023-02-27T09:40:10.988Z,949.4
2023-02-27T09:41:12.665Z,949.4
2023-02-27T09:42:14.321Z,949.3
2023-02-27T09:43:16.299Z,949.3
2023-02-27T09:44:18.178Z,949.3
2023-02-27T09:45:19.849Z,949.3
2023-02-27T09:46:21.774Z,949.4
2023-02-27T09:47:23.402Z,949.4
2023-02-27T09:48:25.074Z,949.4
2023-02-27T09:49:26.756Z,949.5
2023-02-27T09:50:28.481Z,949.5
2023-02-27T09:51:30.706Z,949.5
2023-02-27T09:52:32.357Z,949.6
2023-02-27T09:53:34.154Z,949.6
2023-02-27T09:54:35.896Z,949.6
2023-02-27T09:55:37.647Z,949.6
2023-02-27T09:56:39.330Z,949.5
2023-02-27T09:57:40.968Z,949.5
2023-02-27T09:58:42.685Z,949.5
2023-02-27T09:59:44.827Z,949.6
2023-02-27T10:00:46.488Z,949.5
2023-02-27T10:01:48.223Z,949.6
2023-02-27T10:02:50.073Z,949.6
2023-02-27T10:03:52.012Z,949.6
2023-02-27T10:04:53.655Z,949.6
2023-02-27T10:05:55.247Z,949.7
2023-02-27T10:06:56.927Z,949.7
2023-02-27T10:07:58.557Z,949.7
2023-02-27T10:09:00.211Z,949.7
2023-02-27T10:10:01.851Z,949.7
2023-02-27T10:11:03.725Z,949.7
2023-02-27T10:12:07.988Z,949.6
2023-02-27T10:13:09.665Z,949.6
2023-02-27T10:14:11.524Z,949.7
2023-02-27T10:15:13.405Z,949.6
2023-02-27T10:16:15.337Z,949.6
2023-02-27T10:17:17.178Z,949.6
2023-02-27T10:18:31.117Z,949.6
2023-02-27T10:19:32.885Z,949.6
2023-02-27T10:20:34.658Z,949.7
2023-02-27T10:21:36.290Z,949.7
2023-02-27T10:22:37.945Z,949.7
2023-02-27T10:23:39.599Z,949.8
2023-02-27T10:24:41.285Z,949.7
2023-02-27T10:25:43.183Z,949.7
2023-02-27T10:26:45.211Z,949.7
2023-02-27T10:27:47.057Z,949.7
2023-02-27T10:28:48.899Z,949.7
2023-02-27T10:29:50.672Z,949.7
2023-02-27T10:30:52.777Z,949.7
2023-02-27T10:31:54.643Z,949.7
2023-02-27T10:32:56.497Z,949.6
2023-02-27T10:33:58.342Z,949.6
2023-02-27T10:35:00.310Z,949.6
2023-02-27T10:36:04.108Z,949.6
2023-02-27T10:37:06.151Z,949.6
2023-02-27T10:38:07.899Z,949.6
2023-02-27T10:39:09.741Z,949.6
2023-02-27T10:40:11.602Z,949.6
2023-02-27T10:41:16.210Z,949.6
2023-02-27T10:42:17.947Z,949.5
2023-02-27T10:43:19.860Z,949.5
2023-02-27T10:44:21.655Z,949.5
2023-02-27T10:45:23.608Z,949.5
2023-02-27T10:46:26.540Z,949.5
2023-02-27T10:47:29.265Z,949.5
2023-02-27T10:48:31.118Z,949.5
2023-02-27T10:49:32.823Z,949.5
2023-02-27T10:50:34.620Z,949.5
2023-02-27T10:51:36.368Z,949.5
2023-02-27T10:52:38.169Z,949.5
2023-02-27T10:53:40.049Z,949.6
2023-02-27T10:54:41.885Z,949.6
2023-02-27T10:55:43.644Z,949.6
2023-02-27T10:56:45.568Z,949.6
2023-02-27T10:57:47.441Z,949.6
2023-02-27T10:58:49.277Z,949.5
2023-02-27T10:59:51.057Z,949.6
2023-02-27T11:00:52.915Z,949.5
2023-02-27T11:01:55.039Z,949.5
2023-02-27T11:02:57.276Z,949.5
2023-02-27T11:03:59.063Z,949.5
2023-02-27T11:05:00.727Z,949.5
2023-02-27T11:06:02.376Z,949.5
2023-02-27T11:07:04.105Z,949.5
2023-02-27T11:08:05.762Z,949.5
2023-02-27T11:09:07.392Z,949.5
2023-02-27T11:10:09.024Z,949.4
2023-02-27T11:11:10.678Z,949.4
2023-02-27T11:12:12.656Z,949.4
2023-02-27T11:13:14.400Z,949.4
2023-02-27T11:14:16.019Z,949.3
2023-02-27T11:15:17.677Z,949.3
2023-02-27T11:16:19.366Z,949.3
2023-02-27T11:17:21.147Z,949.3
2023-02-27T11:18:22.776Z,949.2
2023-02-27T11:19:24.429Z,949.2
2023-02-27T11:20:26.028Z,949.3
2023-02-27T11:21:29.358Z,949.3
2023-02-27T11:22:34.083Z,949.2
2023-02-27T11:23:35.797Z,949.3
2023-02-27T11:24:37.499Z,949.3
2023-02-27T11:25:39.141Z,949.3
2023-02-27T11:26:40.890Z,949.3
2023-02-27T11:27:42.648Z,949.3
2023-02-27T11:28:44.707Z,949.2
2023-02-27T11:29:46.446Z,949.2
2023-02-27T11:30:48.571Z,949.1
2023-02-27T11:31:50.497Z,949.1
2023-02-27T11:32:52.355Z,949.1
2023-02-27T11:33:53.974Z,949.1
2023-02-27T11:34:55.635Z,949.1
2023-02-27T11:36:02.050Z,949.1
2023-02-27T11:37:04.064Z,949.2
2023-02-27T11:38:05.767Z,949.1
2023-02-27T11:39:07.411Z,949.1
2023-02-27T11:40:09.105Z,949.1
2023-02-27T11:41:10.882Z,949.1
2023-02-27T11:42:12.660Z,949.2
2023-02-27T11:43:14.730Z,949.1
2023-02-27T11:44:50.442Z,949.1
2023-02-27T11:46:48.833Z,949.2
2023-02-27T11:47:50.754Z,949.2
2023-02-27T11:48:52.491Z,949.2
2023-02-27T11:49:54.322Z,949.2
2023-02-27T11:50:56.076Z,949.3
2023-02-27T11:51:57.792Z,949.3
2023-02-27T11:52:59.902Z,949.3
2023-02-27T11:54:01.585Z,949.3
2023-02-27T11:55:03.318Z,949.2
2023-02-27T11:56:04.999Z,949.2
2023-02-27T11:57:06.667Z,949.2
2023-02-27T11:58:08.384Z,949.2
2023-02-27T11:59:10.177Z,949.2
2023-02-27T12:00:11.940Z,949.2
2023-02-27T12:01:13.662Z,949.2
2023-02-27T12:02:15.365Z,949.2
2023-02-27T12:03:17.101Z,949.2
2023-02-27T12:04:19.745Z,949.1
2023-02-27T12:05:21.545Z,949.2
2023-02-27T12:06:23.234Z,949.1
2023-02-27T12:07:25.108Z,949.1
2023-02-27T12:08:27.386Z,949.1
2023-02-27T12:09:29.209Z,949.2
2023-02-27T12:10:31.325Z,949.1
2023-02-27T12:11:33.524Z,949.1
2023-02-27T12:12:35.486Z,949.1
2023-02-27T12:13:37.328Z,949.1
2023-02-27T12:14:39.413Z,949.1
2023-02-27T12:15:41.527Z,949.1
2023-02-27T12:16:43.866Z,949.1
2023-02-27T12:17:45.809Z,949.1
2023-02-27T12:18:47.457Z,949.1
2023-02-27T12:19:49.098Z,949.1
2023-02-27T12:20:50.770Z,949
2023-02-27T12:21:52.666Z,949.1
2023-02-27T12:22:54.438Z,949.1
2023-02-27T12:23:56.125Z,949.1
2023-02-27T12:24:57.757Z,949.1
2023-02-27T12:25:59.508Z,949.1
2023-02-27T12:27:01.192Z,949.1
2023-02-27T12:28:02.873Z,949.1
2023-02-27T12:29:04.478Z,949.1
2023-02-27T12:30:06.237Z,949.1
2023-02-27T12:31:08.438Z,949.1
2023-02-27T12:32:10.687Z,949
2023-02-27T12:33:12.656Z,949
2023-02-27T12:34:14.481Z,949.1
2023-02-27T12:35:16.209Z,949
2023-02-27T12:36:17.908Z,949
2023-02-27T12:37:19.500Z,949
2023-02-27T12:38:21.285Z,949
2023-02-27T12:39:23.160Z,949
2023-02-27T12:40:24.913Z,949
2023-02-27T12:41:27.912Z,949
2023-02-27T12:42:30.186Z,949
2023-02-27T12:43:31.988Z,949
2023-02-27T12:44:33.969Z,949
2023-02-27T12:45:36.097Z,949.1
2023-02-27T12:46:38.169Z,949.1
2023-02-27T12:47:39.917Z,949
2023-02-27T12:48:41.708Z,949.1
2023-02-27T12:49:43.721Z,949.1
2023-02-27T12:50:45.733Z,949.1
2023-02-27T12:51:47.635Z,949.1
2023-02-27T12:52:49.672Z,949.2
2023-02-27T12:53:51.418Z,949.2
2023-02-27T12:54:53.574Z,949.2
2023-02-27T12:55:55.279Z,949.1
2023-02-27T12:56:57.057Z,949.1
2023-02-27T12:57:58.909Z,949.1
2023-02-27T12:59:00.767Z,949
2023-02-27T13:00:02.685Z,949
2023-02-27T13:01:04.680Z,949
2023-02-27T13:02:06.720Z,949
2023-02-27T13:03:08.524Z,949
2023-02-27T13:04:10.672Z,949
2023-02-27T13:05:12.685Z,949
2023-02-27T13:06:14.462Z,949
2023-02-27T13:07:16.654Z,949
2023-02-27T13:08:18.440Z,949
2023-02-27T13:09:20.172Z,949.1
2023-02-27T13:10:21.935Z,949.1
2023-02-27T13:11:23.790Z,949.1
2023-02-27T13:12:25.636Z,949.1
2023-02-27T13:13:27.499Z,949.1
2023-02-27T13:14:29.340Z,949.1
2023-02-27T13:15:31.181Z,949.1
2023-02-27T13:16:33.190Z,949.1
2023-02-27T13:17:35.303Z,949.1
2023-02-27T13:18:37.063Z,949.1
2023-02-27T13:19:38.802Z,949.1
2023-02-27T13:20:40.552Z,949.1
2023-02-27T13:21:42.386Z,949.1
2023-02-27T13:22:44.161Z,949
2023-02-27T13:23:45.784Z,949
2023-02-27T13:24:47.447Z,949
2023-02-27T13:25:49.399Z,949
2023-02-27T13:26:51.172Z,949
2023-02-27T13:27:54.085Z,949